Time;durP1;ratioP1;P1;durP2;ratioP2;P2;SDS_P1;SDS_P2;PMS_P1;PMS_P2;Temp;Humidity;BMP_temperature;BMP_pressure;BME280_temperature;BME280_humidity;BME280_pressure;Samples;Min_cycle;Max_cycle;Signal;HPM_P1;HPM_P2
2022/11/07 00:02:14;;;;;;;2.03;1.60;;;8.80;97.30;;;;;;4958474;28;20462;-86
2022/11/07 00:04:40;;;;;;;3.60;2.30;;;8.80;97.30;;;;;;4962317;28;20258;-86
2022/11/07 00:07:06;;;;;;;4.40;2.40;;;8.80;97.30;;;;;;4958843;28;20973;-85
2022/11/07 00:09:32;;;;;;;2.00;1.90;;;8.90;97.30;;;;;;4953481;28;20205;-85
2022/11/07 00:11:58;;;;;;;4.43;1.80;;;8.90;97.30;;;;;;4953145;28;20506;-85
2022/11/07 00:14:23;;;;;;;4.50;1.67;;;9.00;97.30;;;;;;4953842;28;20510;-87
2022/11/07 00:16:49;;;;;;;9.27;3.03;;;9.00;97.30;;;;;;4969095;28;20689;-85
2022/11/07 00:19:19;;;;;;;1.77;1.67;;;9.00;97.30;;;;;;4964824;28;20761;-87
2022/11/07 00:21:45;;;;;;;2.07;1.93;;;9.10;97.30;;;;;;4968017;28;20640;-87
2022/11/07 00:24:11;;;;;;;2.43;2.23;;;9.20;97.30;;;;;;4972609;28;20933;-87
2022/11/07 00:26:37;;;;;;;4.30;4.00;;;9.20;97.30;;;;;;4971816;28;20445;-86
2022/11/07 00:29:03;;;;;;;3.77;3.27;;;9.20;97.30;;;;;;4972414;28;20461;-87
2022/11/07 00:31:29;;;;;;;1.67;1.57;;;9.30;97.30;;;;;;4970208;28;20236;-86
2022/11/07 00:33:56;;;;;;;2.20;2.00;;;9.20;97.30;;;;;;4961444;28;20418;-87
2022/11/07 00:36:24;;;;;;;2.07;1.93;;;9.20;97.30;;;;;;4959181;28;20462;-87
2022/11/07 00:38:49;;;;;;;3.07;2.20;;;9.20;97.30;;;;;;4963773;28;20427;-86
2022/11/07 00:41:16;;;;;;;3.03;2.67;;;9.20;97.30;;;;;;4955062;28;20951;-85
2022/11/07 00:43:41;;;;;;;1.80;1.70;;;9.20;97.30;;;;;;4963293;28;20183;-87
2022/11/07 00:46:09;;;;;;;2.80;2.60;;;9.20;97.30;;;;;;4967825;28;20570;-87
2022/11/07 00:48:35;;;;;;;5.00;2.83;;;9.20;97.30;;;;;;4964181;28;20258;-87
2022/11/07 00:51:13;;;;;;;6.53;2.67;;;9.20;97.30;;;;;;4969118;28;20421;-86
2022/11/07 00:53:38;;;;;;;3.20;3.00;;;9.20;97.30;;;;;;4971852;28;20417;-87
2022/11/07 00:56:07;;;;;;;2.53;2.33;;;9.10;97.30;;;;;;4959451;28;20721;-87
2022/11/07 00:58:33;;;;;;;1.73;1.63;;;9.10;97.30;;;;;;4962517;28;20183;-86
2022/11/07 01:01:05;;;;;;;4.17;2.50;;;9.10;97.30;;;;;;4957268;28;20424;-87
2022/11/07 01:06:15;;;;;;;2.00;1.90;;;8.90;97.30;;;;;;4954016;28;20485;-86
2022/11/07 01:08:40;;;;;;;1.63;1.57;;;8.90;97.30;;;;;;4952332;28;20483;-84
2022/11/07 01:11:06;;;;;;;5.53;2.90;;;8.90;97.30;;;;;;4960486;28;20194;-85
2022/11/07 01:13:33;;;;;;;4.00;2.40;;;8.90;97.30;;;;;;4957373;28;20642;-84
2022/11/07 01:15:58;;;;;;;4.23;3.93;;;8.90;97.30;;;;;;4956023;28;20203;-86
2022/11/07 01:18:24;;;;;;;3.33;3.13;;;8.90;97.30;;;;;;4965704;28;20803;-84
2022/11/07 01:20:50;;;;;;;6.23;3.00;;;8.90;97.30;;;;;;4952849;28;20717;-83
2022/11/07 01:23:16;;;;;;;6.53;3.27;;;8.80;97.30;;;;;;4964616;28;20183;-84
2022/11/07 01:25:42;;;;;;;3.53;2.17;;;8.80;97.30;;;;;;4952557;28;20210;-85
2022/11/07 01:28:08;;;;;;;2.23;2.03;;;8.80;97.30;;;;;;4967001;28;20969;-84
2022/11/07 01:30:41;;;;;;;3.80;2.20;;;8.80;97.30;;;;;;4964625;28;20183;-84
2022/11/07 01:33:07;;;;;;;11.20;2.87;;;8.80;97.30;;;;;;4968633;28;20407;-86
2022/11/07 01:35:33;;;;;;;5.60;3.07;;;8.80;97.30;;;;;;4983978;28;20425;-84
2022/11/07 01:37:59;;;;;;;2.67;2.47;;;8.80;97.30;;;;;;4991178;28;20234;-86
2022/11/07 01:40:25;;;;;;;7.53;4.63;;;8.80;97.30;;;;;;4974180;28;20448;-85
2022/11/07 01:42:50;;;;;;;2.73;2.10;;;8.80;97.30;;;;;;4974922;28;20167;-86
2022/11/07 01:45:25;;;;;;;3.87;2.20;;;8.80;97.30;;;;;;4975782;28;20206;-84
2022/11/07 01:47:54;;;;;;;2.20;1.80;;;8.70;97.30;;;;;;4954422;28;20199;-84
2022/11/07 01:50:20;;;;;;;3.23;2.37;;;8.70;97.30;;;;;;4962006;28;20910;-84
2022/11/07 01:52:47;;;;;;;2.63;2.43;;;8.70;97.30;;;;;;4953592;28;20423;-85
2022/11/07 01:55:25;;;;;;;1.97;1.90;;;8.70;97.30;;;;;;4953070;28;20422;-85
2022/11/07 01:58:05;;;;;;;5.33;3.37;;;8.70;97.30;;;;;;4969000;28;20465;-85
2022/11/07 02:00:33;;;;;;;1.50;1.50;;;8.70;97.30;;;;;;4956470;28;20514;-84
2022/11/07 02:03:08;;;;;;;5.87;3.03;;;8.70;97.30;;;;;;4951863;28;20765;-84
2022/11/07 02:05:43;;;;;;;4.37;2.90;;;8.60;97.30;;;;;;4963471;28;20488;-84
2022/11/07 02:08:10;;;;;;;2.03;1.90;;;8.60;97.30;;;;;;4961589;28;20428;-85
2022/11/07 02:10:38;;;;;;;2.73;2.57;;;8.50;97.30;;;;;;4957932;28;20433;-85
2022/11/07 02:13:04;;;;;;;3.63;2.67;;;8.50;97.30;;;;;;4970866;28;20415;-84
2022/11/07 02:15:31;;;;;;;5.60;1.73;;;8.40;97.30;;;;;;4968344;28;20524;-84
2022/11/07 02:17:59;;;;;;;5.53;2.97;;;8.40;97.30;;;;;;4970801;28;20463;-85
2022/11/07 02:20:24;;;;;;;5.60;3.00;;;8.40;97.30;;;;;;4957841;28;20437;-85
2022/11/07 02:23:07;;;;;;;4.40;2.70;;;8.30;97.30;;;;;;4959868;28;20779;-85
2022/11/07 02:25:33;;;;;;;2.40;2.20;;;8.30;97.30;;;;;;4958384;28;20186;-84
2022/11/07 02:28:02;;;;;;;2.60;2.40;;;8.30;97.30;;;;;;4970386;28;20438;-85
2022/11/07 02:30:32;;;;;;;2.47;1.80;;;8.30;97.30;;;;;;4963023;28;20533;-84
2022/11/07 02:32:58;;;;;;;2.30;2.10;;;8.30;97.30;;;;;;4964255;28;20901;-84
2022/11/07 02:35:45;;;;;;;2.27;2.07;;;8.30;97.30;;;;;;4951461;28;20453;-84
2022/11/07 02:38:37;;;;;;;1.60;1.50;;;8.40;97.30;;;;;;4951387;28;20230;-85
2022/11/07 02:41:08;;;;;;;6.27;2.17;;;8.40;97.30;;;;;;4950953;28;20803;-85
2022/11/07 02:43:36;;;;;;;1.83;1.73;;;8.30;97.30;;;;;;4951137;28;20427;-84
2022/11/07 02:46:06;;;;;;;5.53;3.30;;;8.30;97.30;;;;;;4952393;28;20446;-84
2022/11/07 02:48:40;;;;;;;2.90;1.40;;;8.30;97.30;;;;;;4967295;28;20553;-85
2022/11/07 02:51:05;;;;;;;2.70;2.20;;;8.30;97.30;;;;;;4965894;28;20907;-84
2022/11/07 02:53:31;;;;;;;1.87;1.77;;;8.30;97.30;;;;;;4961778;28;20425;-82
2022/11/07 02:55:56;;;;;;;2.70;1.97;;;8.20;97.30;;;;;;4970410;28;20757;-84
2022/11/07 02:58:22;;;;;;;3.77;3.57;;;8.20;97.30;;;;;;4971963;28;20186;-85
2022/11/07 03:00:47;;;;;;;4.70;3.57;;;8.20;97.30;;;;;;4982508;28;20185;-86
2022/11/07 03:03:13;;;;;;;7.13;3.10;;;8.20;97.30;;;;;;4994755;28;20221;-85
2022/11/07 03:05:39;;;;;;;5.43;3.37;;;8.20;97.30;;;;;;4976286;28;20188;-83
2022/11/07 03:08:04;;;;;;;1.83;1.73;;;8.30;97.30;;;;;;4961437;28;20182;-86
2022/11/07 03:10:30;;;;;;;4.43;2.47;;;8.30;97.30;;;;;;4955645;28;20846;-84
2022/11/07 03:12:55;;;;;;;4.77;2.50;;;8.30;97.30;;;;;;4961259;28;20171;-84
2022/11/07 03:15:21;;;;;;;3.87;1.90;;;8.30;97.30;;;;;;4952601;28;20163;-85
2022/11/07 03:17:46;;;;;;;2.60;2.40;;;8.30;97.30;;;;;;4951063;28;20298;-85
2022/11/07 03:20:12;;;;;;;1.43;1.33;;;8.30;97.30;;;;;;4950997;28;20561;-85
2022/11/07 03:22:38;;;;;;;5.10;2.97;;;8.30;97.30;;;;;;4951218;28;20183;-84
2022/11/07 03:25:05;;;;;;;1.87;1.77;;;8.40;97.30;;;;;;4963093;28;20191;-85
2022/11/07 03:27:31;;;;;;;3.10;2.87;;;8.40;97.30;;;;;;4951052;28;20449;-85
2022/11/07 03:29:56;;;;;;;1.83;1.73;;;8.40;97.30;;;;;;4953474;28;20446;-84
2022/11/07 03:32:22;;;;;;;2.17;2.03;;;8.40;97.30;;;;;;4960371;28;20231;-85
2022/11/07 03:34:47;;;;;;;1.63;1.57;;;8.40;97.30;;;;;;4952000;28;20179;-83
2022/11/07 03:37:13;;;;;;;2.50;2.30;;;8.40;97.30;;;;;;4950701;28;20245;-85
2022/11/07 03:39:38;;;;;;;2.00;1.90;;;8.50;97.30;;;;;;4965897;28;20221;-84
2022/11/07 03:42:04;;;;;;;4.00;2.50;;;8.50;97.30;;;;;;4960232;28;20194;-84
2022/11/07 03:44:29;;;;;;;2.07;1.90;;;8.60;97.30;;;;;;4952987;28;20187;-82
2022/11/07 03:46:55;;;;;;;2.43;2.23;;;8.60;97.30;;;;;;4962786;28;20215;-84
2022/11/07 03:49:20;;;;;;;1.97;1.80;;;8.70;97.30;;;;;;4969415;28;20301;-84
2022/11/07 03:51:46;;;;;;;2.80;2.60;;;8.80;97.30;;;;;;4965357;28;20187;-84
2022/11/07 03:54:11;;;;;;;3.87;3.37;;;8.90;97.30;;;;;;4966548;28;20217;-85
2022/11/07 03:56:37;;;;;;;3.10;2.70;;;8.90;97.30;;;;;;4954328;28;20318;-82
2022/11/07 03:59:02;;;;;;;2.60;2.40;;;8.90;97.30;;;;;;4956452;28;20638;-84
2022/11/07 04:01:28;;;;;;;2.60;2.10;;;9.00;97.30;;;;;;4974053;28;20673;-84
2022/11/07 04:03:53;;;;;;;2.07;1.93;;;9.00;97.30;;;;;;4970261;28;20182;-85
2022/11/07 04:06:19;;;;;;;1.97;1.87;;;9.00;97.30;;;;;;4954046;28;20211;-84
2022/11/07 04:08:44;;;;;;;1.97;1.87;;;9.00;97.30;;;;;;4953439;28;20199;-85
2022/11/07 04:17:17;;;;;;;2.37;1.87;;;9.10;97.30;;;;;;4961359;28;20658;-84
2022/11/07 04:19:25;;;;;;;3.70;2.43;;;9.20;97.30;;;;;;4955167;28;20514;-85
2022/11/07 04:21:51;;;;;;;1.90;1.73;;;9.20;97.30;;;;;;4966508;28;20502;-85
2022/11/07 04:24:16;;;;;;;4.83;1.40;;;9.20;97.30;;;;;;4953162;28;20193;-85
2022/11/07 04:29:26;;;;;;;1.43;1.33;;;9.20;97.30;;;;;;4954776;28;20604;-84
2022/11/07 04:31:51;;;;;;;1.90;1.80;;;9.20;97.30;;;;;;4958844;28;20713;-84
2022/11/07 04:34:17;;;;;;;4.63;1.73;;;9.20;97.30;;;;;;4971910;28;20187;-83
2022/11/07 04:36:42;;;;;;;2.43;1.53;;;9.10;97.30;;;;;;4971005;28;20238;-86
2022/11/07 04:39:08;;;;;;;2.40;1.83;;;9.10;97.30;;;;;;4972646;28;20470;-85
2022/11/07 04:41:33;;;;;;;1.80;1.53;;;9.10;97.30;;;;;;4966232;28;20674;-84
2022/11/07 04:43:59;;;;;;;1.63;1.53;;;9.10;97.30;;;;;;4954044;28;20650;-86
2022/11/07 04:46:24;;;;;;;1.57;1.47;;;9.10;97.30;;;;;;4952813;28;20211;-85
2022/11/07 04:48:50;;;;;;;4.20;2.70;;;9.10;97.30;;;;;;4953373;28;20236;-85
2022/11/07 04:51:20;;;;;;;1.20;1.17;;;9.10;97.30;;;;;;4953583;28;20187;-85
2022/11/07 04:53:45;;;;;;;2.50;1.93;;;9.10;97.30;;;;;;4954338;28;20213;-84
2022/11/07 04:56:11;;;;;;;4.43;2.17;;;9.20;97.30;;;;;;4972121;28;21056;-86
2022/11/07 04:58:36;;;;;;;1.87;1.77;;;9.10;97.30;;;;;;4957848;28;20663;-85
2022/11/07 05:01:02;;;;;;;3.90;1.83;;;9.10;97.30;;;;;;4966458;28;20190;-87
2022/11/07 05:03:28;;;;;;;2.80;2.60;;;9.10;97.30;;;;;;4953206;28;20261;-85
2022/11/07 05:05:56;;;;;;;3.87;1.73;;;9.10;97.30;;;;;;4971414;28;20183;-85
2022/11/07 05:08:24;;;;;;;1.30;1.20;;;9.00;97.30;;;;;;4968472;28;20211;-86
2022/11/07 05:10:50;;;;;;;2.40;1.67;;;9.00;97.30;;;;;;4961515;28;20414;-87
2022/11/07 05:13:17;;;;;;;1.30;1.20;;;9.00;97.30;;;;;;4964163;28;20937;-87
2022/11/07 05:15:46;;;;;;;2.80;1.80;;;8.90;97.30;;;;;;4963830;28;20179;-86
2022/11/07 05:18:14;;;;;;;2.00;1.83;;;8.90;97.30;;;;;;4966964;28;20410;-86
2022/11/07 05:20:39;;;;;;;1.70;1.60;;;8.90;97.30;;;;;;4964840;28;20425;-86
2022/11/07 05:23:11;;;;;;;2.73;2.00;;;8.90;97.30;;;;;;4965251;28;20867;-88
2022/11/07 05:25:38;;;;;;;1.70;1.60;;;8.90;97.30;;;;;;4960144;28;20189;-87
2022/11/07 05:28:04;;;;;;;2.37;1.30;;;8.80;97.30;;;;;;4957610;28;20490;-86
2022/11/07 05:30:30;;;;;;;1.63;1.53;;;8.80;97.30;;;;;;4967999;28;20528;-87
2022/11/07 05:32:55;;;;;;;1.47;1.30;;;8.80;97.30;;;;;;4965415;28;20482;-87
2022/11/07 05:35:21;;;;;;;2.13;1.97;;;8.70;97.30;;;;;;4964851;28;20270;-88
2022/11/07 05:37:47;;;;;;;1.73;1.70;;;8.70;97.30;;;;;;4973598;28;20253;-88
2022/11/07 05:40:13;;;;;;;2.70;1.83;;;8.70;97.30;;;;;;4973612;28;20226;-88
2022/11/07 05:42:39;;;;;;;1.10;1.00;;;8.70;97.30;;;;;;4968862;28;20436;-87
2022/11/07 05:45:05;;;;;;;1.70;1.63;;;8.70;97.30;;;;;;4971159;28;20210;-87
2022/11/07 05:47:31;;;;;;;2.30;1.60;;;8.70;97.30;;;;;;4968682;28;20518;-87
2022/11/07 05:49:56;;;;;;;2.60;1.93;;;8.60;97.30;;;;;;4952396;28;20490;-87
2022/11/07 05:52:24;;;;;;;2.03;1.70;;;8.60;97.30;;;;;;4955670;28;20560;-87
2022/11/07 05:54:49;;;;;;;1.33;1.23;;;8.40;97.30;;;;;;4970554;28;20182;-86
2022/11/07 05:57:18;;;;;;;1.53;1.43;;;8.20;97.30;;;;;;4957453;28;20454;-85
2022/11/07 05:59:44;;;;;;;3.10;2.20;;;8.00;97.30;;;;;;4986073;28;20206;-83
2022/11/07 06:02:10;;;;;;;2.03;1.90;;;8.00;97.30;;;;;;4954675;28;20869;-87
2022/11/07 06:04:41;;;;;;;1.90;1.57;;;7.90;97.30;;;;;;4955218;28;20278;-86
2022/11/07 06:07:09;;;;;;;1.67;1.57;;;8.00;97.30;;;;;;4951888;28;20502;-86
2022/11/07 06:09:35;;;;;;;1.80;1.70;;;8.00;97.30;;;;;;4959566;28;20459;-85
2022/11/07 06:12:02;;;;;;;2.13;1.50;;;8.10;97.30;;;;;;4958896;28;20422;-87
2022/11/07 06:14:28;;;;;;;1.30;1.20;;;8.10;97.30;;;;;;4959581;28;20688;-87
2022/11/07 06:16:53;;;;;;;1.10;1.00;;;8.20;97.30;;;;;;4964503;28;20453;-87
2022/11/07 06:19:21;;;;;;;1.40;1.30;;;8.20;97.30;;;;;;4963652;28;20179;-86
2022/11/07 06:21:49;;;;;;;1.90;1.80;;;8.20;97.30;;;;;;4953618;28;20179;-86
2022/11/07 06:24:18;;;;;;;1.47;1.37;;;8.20;97.30;;;;;;4954970;28;20422;-83
2022/11/07 06:26:44;;;;;;;8.73;2.10;;;8.20;97.30;;;;;;4954096;28;20469;-86
2022/11/07 06:29:10;;;;;;;2.13;1.97;;;8.20;97.30;;;;;;4951670;29;20459;-86
2022/11/07 06:31:35;;;;;;;3.00;1.23;;;8.20;97.30;;;;;;4958396;28;20234;-87
2022/11/07 06:34:01;;;;;;;1.50;1.40;;;8.20;97.30;;;;;;4957622;28;20227;-87
2022/11/07 06:36:26;;;;;;;2.13;1.77;;;8.40;97.30;;;;;;4954482;28;20234;-87
2022/11/07 06:39:00;;;;;;;2.97;1.67;;;8.40;97.30;;;;;;4971455;28;20182;-85
2022/11/07 06:41:28;;;;;;;1.43;1.33;;;8.50;97.30;;;;;;4956088;28;21025;-86
2022/11/07 06:44:20;;;;;;;;;;;;;;;;;;;;;
2022/11/07 06:47:21;;;;;;;3.60;2.10;;;8.70;97.30;;;;;;4962565;28;20469;-85
2022/11/07 06:49:49;;;;;;;1.60;1.50;;;8.80;97.30;;;;;;4976354;28;20557;-86
2022/11/07 06:52:50;;;;;;;1.70;1.60;;;8.90;97.30;;;;;;4988189;28;20456;-86
2022/11/07 06:55:41;;;;;;;2.03;1.40;;;8.90;97.30;;;;;;4979574;28;20427;-85
2022/11/07 06:58:19;;;;;;;1.27;1.17;;;9.00;97.30;;;;;;4957081;28;20841;-85
2022/11/07 07:00:51;;;;;;;2.43;2.20;;;9.10;97.30;;;;;;4971634;28;21022;-85
2022/11/07 07:03:16;;;;;;;2.40;1.50;;;9.10;97.30;;;;;;4953009;28;20418;-87
2022/11/07 07:05:49;;;;;;;16.40;5.00;;;9.20;97.30;;;;;;4952217;28;20419;-86
2022/11/07 07:08:17;;;;;;;1.83;1.73;;;9.20;97.30;;;;;;4951526;28;20669;-87
2022/11/07 07:10:49;;;;;;;2.30;2.03;;;9.20;97.30;;;;;;4952646;28;20411;-86
2022/11/07 07:13:21;;;;;;;1.73;1.63;;;9.30;97.30;;;;;;4951543;28;20465;-86
2022/11/07 07:16:30;;;;;;;1.23;1.13;;;9.30;97.30;;;;;;4955804;28;20477;-85
2022/11/07 07:19:10;;;;;;;1.90;1.77;;;9.40;97.30;;;;;;4952275;28;20498;-86
2022/11/07 07:21:58;;;;;;;1.53;1.43;;;9.40;97.30;;;;;;4953655;28;20430;-87
2022/11/07 07:24:40;;;;;;;3.33;2.60;;;9.50;97.30;;;;;;4955420;28;20458;-86
2022/11/07 07:27:09;;;;;;;0.90;0.90;;;9.50;97.30;;;;;;4955430;28;20795;-86
2022/11/07 07:29:41;;;;;;;1.57;1.47;;;9.60;97.30;;;;;;4955403;28;20455;-86
2022/11/07 07:32:09;;;;;;;3.03;1.90;;;9.70;97.30;;;;;;4971343;28;20985;-87
2022/11/07 07:34:34;;;;;;;1.80;1.40;;;9.80;97.30;;;;;;4964039;28;20934;-85
2022/11/07 07:37:00;;;;;;;2.23;2.00;;;9.90;97.30;;;;;;4966769;28;20466;-87
2022/11/07 07:39:26;;;;;;;3.03;1.90;;;9.90;97.30;;;;;;4960794;28;20186;-85
2022/11/07 07:41:52;;;;;;;4.83;2.50;;;10.00;97.30;;;;;;4966450;28;20182;-87
2022/11/07 07:44:17;;;;;;;1.30;1.20;;;10.00;97.30;;;;;;4967365;28;20426;-88
2022/11/07 07:46:43;;;;;;;1.63;1.43;;;10.00;97.30;;;;;;4973514;28;20202;-87
2022/11/07 07:49:09;;;;;;;1.60;1.50;;;10.00;97.30;;;;;;4961956;28;20211;-86
2022/11/07 07:51:34;;;;;;;1.37;1.27;;;10.00;97.30;;;;;;4960592;28;20241;-86
2022/11/07 07:54:00;;;;;;;3.23;1.93;;;10.00;97.30;;;;;;4974950;28;20867;-84
2022/11/07 07:56:26;;;;;;;1.60;1.50;;;10.10;97.30;;;;;;4971305;28;20244;-85
2022/11/07 07:58:52;;;;;;;1.10;1.00;;;10.20;97.30;;;;;;4972344;28;20684;-86
2022/11/07 08:01:18;;;;;;;1.63;1.53;;;10.30;97.30;;;;;;4963638;28;20434;-85
2022/11/07 08:03:43;;;;;;;1.40;0.93;;;10.40;97.30;;;;;;4969818;28;20281;-86
2022/11/07 08:06:09;;;;;;;2.70;1.47;;;10.50;97.30;;;;;;4970011;28;20205;-83
2022/11/07 08:08:35;;;;;;;1.97;1.87;;;10.60;97.30;;;;;;4966426;28;20233;-88
2022/11/07 08:11:03;;;;;;;1.30;1.20;;;10.60;97.30;;;;;;4972109;28;20422;-87
2022/11/07 08:13:29;;;;;;;1.17;1.10;;;10.70;97.30;;;;;;4966254;28;20850;-87
2022/11/07 08:15:56;;;;;;;1.10;1.00;;;10.80;97.30;;;;;;4969909;28;20430;-87
2022/11/07 08:18:22;;;;;;;1.10;1.00;;;10.90;97.30;;;;;;4969905;28;20959;-86
2022/11/07 08:20:53;;;;;;;1.87;1.73;;;11.00;97.30;;;;;;4966502;28;20928;-88
2022/11/07 08:23:19;;;;;;;1.30;1.20;;;11.00;97.30;;;;;;4973774;28;20418;-87
2022/11/07 08:25:49;;;;;;;1.30;1.20;;;11.00;97.30;;;;;;4966392;28;20430;-85
2022/11/07 08:28:15;;;;;;;0.93;0.90;;;11.00;97.30;;;;;;4967409;28;21085;-86
2022/11/07 08:30:40;;;;;;;1.23;1.20;;;11.10;97.30;;;;;;4967560;28;20506;-85
2022/11/07 08:33:06;;;;;;;1.57;1.50;;;11.10;97.30;;;;;;4972454;28;20668;-85
2022/11/07 08:35:34;;;;;;;1.50;1.40;;;11.20;97.30;;;;;;4968755;28;20171;-86
2022/11/07 08:37:59;;;;;;;1.10;1.00;;;11.30;97.30;;;;;;4963993;28;20233;-85
2022/11/07 08:40:25;;;;;;;1.67;1.20;;;11.40;97.30;;;;;;4967356;28;20792;-87
2022/11/07 08:42:51;;;;;;;1.20;1.10;;;11.50;97.30;;;;;;4972869;28;20182;-87
2022/11/07 08:45:17;;;;;;;1.30;1.30;;;11.60;97.30;;;;;;4954975;28;20497;-86
2022/11/07 08:47:42;;;;;;;1.33;1.23;;;11.70;97.30;;;;;;4958924;28;20205;-87
2022/11/07 08:50:08;;;;;;;2.60;1.20;;;11.80;97.30;;;;;;4955811;28;20214;-86
2022/11/07 08:52:35;;;;;;;4.03;1.60;;;11.90;97.30;;;;;;4960139;28;20552;-87
2022/11/07 08:55:04;;;;;;;1.53;1.30;;;11.90;97.30;;;;;;4958407;28;20179;-87
2022/11/07 08:57:29;;;;;;;1.60;1.50;;;12.00;97.30;;;;;;4973217;28;21043;-87
2022/11/07 08:59:55;;;;;;;1.67;1.50;;;12.10;97.30;;;;;;4968901;28;20505;-87
2022/11/07 09:02:20;;;;;;;3.83;2.57;;;12.20;97.30;;;;;;4952584;28;20183;-87
2022/11/07 09:04:46;;;;;;;1.37;1.37;;;12.20;97.30;;;;;;4952274;28;20666;-87
2022/11/07 09:07:11;;;;;;;1.50;1.40;;;12.30;97.30;;;;;;4952479;28;20478;-85
2022/11/07 09:09:37;;;;;;;2.47;1.67;;;12.30;97.30;;;;;;4956472;28;20225;-87
2022/11/07 09:12:02;;;;;;;3.33;2.13;;;12.30;97.30;;;;;;4962022;28;20197;-87
2022/11/07 09:14:28;;;;;;;1.47;1.37;;;12.20;97.30;;;;;;4971262;28;20178;-87
2022/11/07 09:16:53;;;;;;;2.90;1.70;;;12.30;97.30;;;;;;4970482;28;20229;-85
2022/11/07 09:19:19;;;;;;;1.20;1.10;;;12.40;97.30;;;;;;4961377;28;20182;-87
2022/11/07 09:21:45;;;;;;;1.17;1.07;;;12.50;97.30;;;;;;4971158;28;20191;-86
2022/11/07 09:24:10;;;;;;;1.20;1.00;;;12.60;97.30;;;;;;4963556;28;20193;-87
2022/11/07 09:26:36;;;;;;;1.20;1.10;;;12.70;97.30;;;;;;4966443;28;20922;-87
2022/11/07 09:29:02;;;;;;;1.17;1.07;;;12.70;97.30;;;;;;4971882;28;20194;-87
2022/11/07 09:31:27;;;;;;;1.10;1.00;;;12.80;97.30;;;;;;4956873;28;20682;-86
2022/11/07 09:33:53;;;;;;;1.10;1.00;;;12.80;97.30;;;;;;4960564;28;20253;-86
2022/11/07 09:36:19;;;;;;;1.13;1.03;;;12.90;97.30;;;;;;4956846;28;20250;-85
2022/11/07 09:38:44;;;;;;;1.63;1.30;;;12.90;97.30;;;;;;4960401;28;20186;-86
2022/11/07 09:41:32;;;;;;;1.10;1.00;;;13.10;97.30;;;;;;4956427;28;20441;-87
2022/11/07 09:44:10;;;;;;;1.67;1.40;;;13.20;97.30;;;;;;4952101;28;20238;-86
2022/11/07 09:47:05;;;;;;;1.33;1.23;;;13.30;97.30;;;;;;4953286;28;20933;-86
2022/11/07 09:49:37;;;;;;;1.00;0.90;;;13.30;97.30;;;;;;4952519;28;20478;-87
2022/11/07 09:52:28;;;;;;;2.03;1.57;;;13.30;97.30;;;;;;4952114;29;20427;-86
2022/11/07 09:55:15;;;;;;;1.07;1.03;;;13.40;97.30;;;;;;4952284;29;20476;-84
2022/11/07 09:57:41;;;;;;;7.40;1.90;;;13.60;97.30;;;;;;4952058;29;20942;-86
2022/11/07 10:00:15;;;;;;;2.40;1.40;;;13.70;97.30;;;;;;4951938;29;20419;-87
2022/11/07 10:03:00;;;;;;;4.63;1.43;;;13.80;97.30;;;;;;4951788;29;20191;-87
2022/11/07 10:05:49;;;;;;;2.00;1.90;;;13.90;97.30;;;;;;4951906;29;20418;-87
2022/11/07 10:08:18;;;;;;;1.10;1.00;;;14.00;97.30;;;;;;4951636;29;20506;-87
2022/11/07 10:10:52;;;;;;;4.03;1.30;;;14.00;97.30;;;;;;4951884;28;20415;-87
2022/11/07 10:13:45;;;;;;;1.10;1.00;;;14.10;97.30;;;;;;4952667;29;20418;-87
2022/11/07 10:16:23;;;;;;;1.40;1.30;;;14.20;97.30;;;;;;4951558;29;20954;-87
2022/11/07 10:19:13;;;;;;;2.00;1.27;;;14.20;97.00;;;;;;4951714;29;21021;-87
2022/11/07 10:21:52;;;;;;;1.20;1.10;;;14.30;97.00;;;;;;4951671;29;20433;-88
2022/11/07 10:24:33;;;;;;;1.40;1.30;;;14.20;96.60;;;;;;4951435;29;20437;-88
2022/11/07 10:26:59;;;;;;;1.57;1.47;;;14.20;96.60;;;;;;4951498;29;20513;-88
2022/11/07 10:29:33;;;;;;;0.90;0.90;;;14.20;96.90;;;;;;4951674;29;20467;-86
2022/11/07 10:32:25;;;;;;;1.10;1.00;;;14.20;96.70;;;;;;4951831;29;20469;-88
2022/11/07 10:35:09;;;;;;;3.50;1.33;;;14.20;97.00;;;;;;4951958;29;20426;-87
2022/11/07 10:37:35;;;;;;;3.53;1.37;;;14.10;96.70;;;;;;4951312;29;20463;-87
2022/11/07 10:40:00;;;;;;;1.17;1.00;;;14.10;97.00;;;;;;4967794;28;20461;-89
2022/11/07 10:42:30;;;;;;;3.13;1.73;;;14.10;97.20;;;;;;4977383;28;20183;-89
2022/11/07 10:44:58;;;;;;;2.20;1.20;;;14.20;97.20;;;;;;4976622;28;20179;-88
2022/11/07 10:47:26;;;;;;;1.77;1.67;;;14.20;97.00;;;;;;4956194;29;20434;-86
2022/11/07 10:49:57;;;;;;;28.97;1.80;;;14.10;97.00;;;;;;4951353;29;20466;-86
2022/11/07 10:52:24;;;;;;;1.20;1.10;;;14.10;97.10;;;;;;4951255;29;20426;-88
2022/11/07 10:54:50;;;;;;;1.23;1.13;;;14.10;97.30;;;;;;4951152;29;20423;-86
2022/11/07 10:57:22;;;;;;;1.43;1.23;;;14.00;97.20;;;;;;4953488;28;20453;-87
2022/11/07 10:59:50;;;;;;;2.30;1.27;;;14.00;97.30;;;;;;4955067;29;20191;-86
2022/11/07 11:02:47;;;;;;;1.10;1.00;;;14.00;97.30;;;;;;4955053;29;20433;-86
2022/11/07 11:05:39;;;;;;;2.10;1.70;;;14.00;97.30;;;;;;4954885;29;20509;-87
2022/11/07 11:08:22;;;;;;;1.33;1.23;;;14.00;97.30;;;;;;4956267;28;20411;-88
2022/11/07 11:10:49;;;;;;;1.03;0.93;;;14.00;97.30;;;;;;4956279;28;20510;-87
2022/11/07 11:13:32;;;;;;;1.10;1.00;;;14.00;97.30;;;;;;4956245;28;20414;-88
2022/11/07 11:16:25;;;;;;;0.90;0.80;;;14.00;97.30;;;;;;4960621;28;20513;-87
2022/11/07 11:18:59;;;;;;;2.90;1.33;;;14.00;97.30;;;;;;4974300;28;20432;-88
2022/11/07 11:21:36;;;;;;;1.57;1.23;;;14.00;97.30;;;;;;4974501;28;20460;-86
2022/11/07 11:24:22;;;;;;;2.63;0.93;;;14.00;97.30;;;;;;4974570;28;20561;-87
2022/11/07 11:26:49;;;;;;;1.30;1.20;;;14.00;97.30;;;;;;4974174;28;20449;-88
2022/11/07 11:30:06;;;;;;;3.20;1.73;;;14.00;97.30;;;;;;4957867;28;20465;-86
2022/11/07 11:32:44;;;;;;;1.03;0.93;;;14.00;97.30;;;;;;4934392;29;20482;-85
2022/11/07 11:35:41;;;;;;;1.40;1.30;;;14.00;97.30;;;;;;4918231;29;20486;-88
2022/11/07 11:38:23;;;;;;;1.37;1.13;;;13.90;97.30;;;;;;4964452;28;20465;-87
2022/11/07 11:41:05;;;;;;;0.90;0.90;;;13.90;97.30;;;;;;4973866;28;20417;-86
2022/11/07 11:43:53;;;;;;;1.30;1.17;;;13.90;97.30;;;;;;4973705;28;20508;-87
2022/11/07 11:46:39;;;;;;;3.40;1.60;;;13.90;97.30;;;;;;4975236;28;20467;-86
2022/11/07 11:49:26;;;;;;;0.90;0.80;;;13.90;97.30;;;;;;4974795;28;20982;-88
2022/11/07 11:51:57;;;;;;;1.10;1.00;;;13.90;97.30;;;;;;4973439;28;20410;-86
2022/11/07 11:54:23;;;;;;;2.40;2.20;;;14.00;97.30;;;;;;4973544;28;20425;-87
2022/11/07 11:56:57;;;;;;;19.73;2.30;;;14.00;97.30;;;;;;4973655;28;20438;-88
2022/11/07 12:00:03;;;;;;;1.17;1.03;;;14.00;97.30;;;;;;4973564;28;20181;-87
2022/11/07 12:02:29;;;;;;;1.13;0.80;;;14.00;97.30;;;;;;4973516;28;20433;-88
2022/11/07 12:05:36;;;;;;;1.10;1.00;;;14.00;97.30;;;;;;4973585;28;20414;-87
2022/11/07 12:08:13;;;;;;;1.33;1.20;;;14.00;97.30;;;;;;4940893;28;20225;-87
2022/11/07 12:11:09;;;;;;;1.00;0.90;;;14.00;97.30;;;;;;4973318;28;20468;-87
2022/11/07 12:13:48;;;;;;;1.40;1.30;;;13.90;97.30;;;;;;4973377;28;20417;-87
2022/11/07 12:16:32;;;;;;;2.70;1.73;;;13.90;97.30;;;;;;4965123;28;20529;-87
2022/11/07 12:19:23;;;;;;;1.37;1.33;;;13.90;97.30;;;;;;4953622;29;20434;-86
2022/11/07 12:22:03;;;;;;;1.63;1.57;;;13.90;97.30;;;;;;4946188;29;20934;-86
2022/11/07 12:24:50;;;;;;;0.90;0.80;;;13.90;97.30;;;;;;4954366;28;20492;-85
2022/11/07 12:27:42;;;;;;;0.90;0.80;;;13.90;97.30;;;;;;4954189;29;20443;-88
2022/11/07 12:30:16;;;;;;;1.00;0.90;;;13.90;97.30;;;;;;4954459;28;20554;-87
2022/11/07 12:33:20;;;;;;;1.00;0.90;;;13.90;97.30;;;;;;4970288;29;20415;-88
2022/11/07 12:36:25;;;;;;;1.20;1.20;;;13.90;97.30;;;;;;4970629;28;20415;-89
2022/11/07 12:39:02;;;;;;;1.00;0.90;;;13.80;97.30;;;;;;4915013;29;20447;-87
2022/11/07 12:41:51;;;;;;;1.00;0.97;;;13.80;97.30;;;;;;4979613;28;20430;-87
2022/11/07 12:44:44;;;;;;;1.30;1.20;;;13.80;97.30;;;;;;4953529;28;20922;-86
2022/11/07 12:47:22;;;;;;;1.83;1.73;;;13.80;97.30;;;;;;4953427;28;20439;-87
2022/11/07 12:50:08;;;;;;;3.63;2.27;;;13.80;97.30;;;;;;4953834;28;20458;-87
2022/11/07 12:52:42;;;;;;;1.10;1.00;;;13.80;97.30;;;;;;4953090;29;20423;-88
2022/11/07 12:55:40;;;;;;;1.10;1.00;;;13.80;97.30;;;;;;4953498;29;20421;-87
2022/11/07 12:58:26;;;;;;;1.20;1.10;;;13.80;97.30;;;;;;4953698;28;20518;-86
2022/11/07 13:00:53;;;;;;;2.27;1.00;;;13.80;97.30;;;;;;4953229;28;20922;-88
2022/11/07 13:03:50;;;;;;;1.37;1.27;;;13.90;97.30;;;;;;4953207;28;20415;-87
2022/11/07 13:06:29;;;;;;;1.17;1.07;;;13.90;97.30;;;;;;4952936;29;20427;-87
2022/11/07 13:09:00;;;;;;;1.83;1.33;;;13.90;97.30;;;;;;4952999;28;20500;-87
2022/11/07 13:11:43;;;;;;;1.10;1.00;;;13.90;97.30;;;;;;4953122;29;20442;-87
2022/11/07 13:14:19;;;;;;;2.70;1.27;;;13.90;97.30;;;;;;4952799;28;20503;-87
2022/11/07 13:16:52;;;;;;;11.63;2.23;;;13.90;97.30;;;;;;4964674;28;20430;-87
2022/11/07 13:19:34;;;;;;;1.93;1.60;;;13.90;97.30;;;;;;4971273;28;20801;-87
2022/11/07 13:22:20;;;;;;;1.73;1.20;;;13.90;97.30;;;;;;4971848;28;20418;-86
2022/11/07 13:24:50;;;;;;;1.00;0.90;;;13.90;97.30;;;;;;4972048;28;20634;-86
2022/11/07 13:27:24;;;;;;;1.90;1.80;;;13.90;97.30;;;;;;4972136;28;20437;-86